Time;durP1;ratioP1;P1;durP2;ratioP2;P2;SDS_P1;SDS_P2;PMS_P1;PMS_P2;Temp;Humidity;BMP_temperature;BMP_pressure;BME280_temperature;BME280_humidity;BME280_pressure;Samples;Min_cycle;Max_cycle;Signal;HPM_P1;HPM_P2
2024/04/04 00:01:57;;;;;;;0.00;0.00;;;22.20;49.50;;;;;;5070728;28;20194;-46
2024/04/04 00:04:31;;;;;;;0.00;0.00;;;22.20;49.50;;;;;;5069946;28;20730;-47
2024/04/04 00:07:00;;;;;;;0.03;0.03;;;22.10;49.40;;;;;;5070314;28;20569;-47
2024/04/04 00:09:31;;;;;;;0.05;0.05;;;22.20;49.50;;;;;;5070668;28;20222;-50
2024/04/04 00:12:01;;;;;;;0.00;0.00;;;22.20;49.50;;;;;;5070827;28;20203;-46
2024/04/04 00:14:32;;;;;;;0.00;0.00;;;22.10;49.50;;;;;;5070372;28;20281;-47
2024/04/04 00:17:01;;;;;;;0.03;0.03;;;22.20;49.50;;;;;;5070694;28;20194;-47
2024/04/04 00:19:32;;;;;;;0.03;0.03;;;22.20;49.50;;;;;;5070824;28;20666;-46
2024/04/04 00:22:01;;;;;;;0.00;0.00;;;22.20;49.50;;;;;;5071128;28;20674;-48
2024/04/04 00:24:32;;;;;;;0.10;0.10;;;22.20;49.50;;;;;;5070846;28;20195;-50
2024/04/04 00:27:03;;;;;;;0.00;0.00;;;22.20;49.50;;;;;;5070209;28;20195;-48
2024/04/04 00:29:34;;;;;;;0.00;0.00;;;22.20;49.50;;;;;;5071250;28;20690;-49
2024/04/04 00:32:03;;;;;;;0.10;0.10;;;22.20;49.50;;;;;;5070491;28;20187;-48
2024/04/04 00:34:34;;;;;;;0.00;0.00;;;22.20;49.40;;;;;;5070794;28;20198;-46
2024/04/04 00:37:04;;;;;;;0.00;0.00;;;22.20;49.50;;;;;;5070023;28;20218;-46
2024/04/04 00:39:35;;;;;;;0.00;0.00;;;22.20;49.40;;;;;;5070564;28;20277;-47
2024/04/04 00:42:06;;;;;;;0.00;0.00;;;22.20;49.40;;;;;;5070803;28;20203;-46
2024/04/04 00:44:37;;;;;;;0.00;0.00;;;22.20;49.40;;;;;;5071469;28;20209;-47
2024/04/04 00:47:06;;;;;;;0.10;0.10;;;22.20;49.40;;;;;;5071062;28;20649;-46
2024/04/04 00:49:37;;;;;;;0.10;0.10;;;22.20;49.40;;;;;;5070721;28;20309;-47
2024/04/04 00:52:09;;;;;;;0.10;0.10;;;22.20;49.40;;;;;;5070849;28;20207;-48
2024/04/04 00:54:45;;;;;;;0.10;0.10;;;22.20;49.40;;;;;;5070235;28;20269;-47
2024/04/04 00:57:17;;;;;;;0.00;0.00;;;22.20;49.30;;;;;;5074166;28;20214;-48
2024/04/04 00:59:49;;;;;;;0.00;0.00;;;22.20;49.30;;;;;;5074506;28;20374;-46
2024/04/04 01:02:18;;;;;;;0.00;0.00;;;22.30;49.30;;;;;;5074595;28;20647;-46
2024/04/04 01:04:49;;;;;;;0.00;0.00;;;22.20;49.30;;;;;;5074337;28;20190;-46
2024/04/04 01:07:19;;;;;;;0.00;0.00;;;22.20;49.30;;;;;;5073939;28;20222;-46
2024/04/04 01:09:50;;;;;;;0.00;0.00;;;22.30;49.30;;;;;;5073770;28;20226;-46
2024/04/04 01:12:21;;;;;;;0.00;0.00;;;22.30;49.30;;;;;;5073677;28;20272;-47
2024/04/04 01:14:51;;;;;;;0.00;0.00;;;22.30;49.30;;;;;;5073390;28;20736;-48
2024/04/04 01:17:21;;;;;;;0.10;0.10;;;22.30;49.30;;;;;;5073894;28;20276;-48
2024/04/04 01:19:51;;;;;;;0.10;0.10;;;22.30;49.30;;;;;;5074151;28;20230;-45
2024/04/04 01:22:20;;;;;;;0.10;0.10;;;22.30;49.20;;;;;;5074111;28;20195;-46
2024/04/04 01:24:53;;;;;;;0.10;0.10;;;22.30;49.20;;;;;;5074245;28;20206;-45
2024/04/04 01:27:22;;;;;;;0.10;0.10;;;22.30;49.20;;;;;;5074646;28;20222;-46
2024/04/04 01:29:53;;;;;;;0.10;0.10;;;22.30;49.20;;;;;;5074125;28;20222;-45
2024/04/04 01:32:22;;;;;;;0.10;0.10;;;22.30;49.20;;;;;;5073862;28;20674;-45
2024/04/04 01:34:53;;;;;;;0.00;0.00;;;22.30;49.20;;;;;;5073383;28;20218;-46
2024/04/04 01:37:22;;;;;;;0.00;0.00;;;22.30;49.20;;;;;;5073697;28;20256;-47
2024/04/04 01:39:54;;;;;;;0.00;0.00;;;22.30;49.20;;;;;;5074019;28;20194;-45
2024/04/04 01:42:23;;;;;;;0.10;0.10;;;22.30;49.20;;;;;;5073110;28;20268;-45
2024/04/04 01:44:54;;;;;;;0.10;0.10;;;22.30;49.10;;;;;;5074279;28;20206;-48
2024/04/04 01:47:23;;;;;;;0.00;0.00;;;22.30;49.10;;;;;;5073555;28;20214;-47
2024/04/04 01:49:54;;;;;;;0.00;0.00;;;22.30;49.00;;;;;;5073549;28;20229;-46
2024/04/04 01:52:23;;;;;;;0.08;0.08;;;22.30;49.00;;;;;;5073418;28;20195;-45
2024/04/04 01:54:55;;;;;;;0.05;0.05;;;22.30;49.00;;;;;;5073838;28;20199;-46
2024/04/04 01:57:24;;;;;;;0.00;0.00;;;22.30;49.00;;;;;;5073645;28;20273;-47
2024/04/04 01:59:56;;;;;;;0.00;0.00;;;22.30;49.00;;;;;;5073163;28;20244;-46
2024/04/04 02:02:25;;;;;;;0.00;0.00;;;22.30;49.00;;;;;;5073340;28;20199;-46
2024/04/04 02:04:55;;;;;;;0.00;0.00;;;22.30;49.00;;;;;;5073314;28;20195;-46
2024/04/04 02:07:25;;;;;;;0.00;0.00;;;22.30;49.00;;;;;;5072881;28;20230;-46
2024/04/04 02:09:57;;;;;;;0.00;0.00;;;22.30;48.90;;;;;;5072852;28;20638;-46
2024/04/04 02:12:26;;;;;;;0.10;0.10;;;22.30;49.00;;;;;;5073097;28;20646;-48
2024/04/04 02:14:57;;;;;;;0.00;0.00;;;22.30;48.90;;;;;;5073502;28;20199;-47
2024/04/04 02:17:26;;;;;;;0.10;0.10;;;22.30;49.50;;;;;;5072700;28;20211;-46
2024/04/04 02:19:56;;;;;;;0.00;0.00;;;22.30;48.90;;;;;;5072006;28;20201;-47
2024/04/04 02:22:26;;;;;;;0.00;0.00;;;22.30;48.90;;;;;;5072914;28;20207;-46
2024/04/04 02:24:58;;;;;;;0.00;0.00;;;22.30;48.80;;;;;;5072446;28;20206;-46
2024/04/04 02:27:27;;;;;;;0.00;0.00;;;22.30;48.90;;;;;;5072101;28;20287;-48
2024/04/04 02:29:58;;;;;;;0.00;0.00;;;22.30;48.80;;;;;;5072068;28;20283;-46
2024/04/04 02:32:27;;;;;;;0.00;0.00;;;22.30;48.80;;;;;;5072041;28;20202;-46
2024/04/04 02:34:58;;;;;;;0.00;0.00;;;22.30;48.80;;;;;;5071895;28;20213;-46
2024/04/04 02:37:27;;;;;;;0.00;0.00;;;22.30;48.80;;;;;;5072403;28;20222;-46
2024/04/04 02:40:00;;;;;;;0.00;0.00;;;22.30;48.80;;;;;;5072527;28;20195;-46
2024/04/04 02:42:29;;;;;;;0.00;0.00;;;22.30;48.80;;;;;;5070719;28;20248;-46
2024/04/04 02:45:01;;;;;;;0.10;0.10;;;22.30;48.80;;;;;;5070964;22;20281;-46
2024/04/04 02:47:31;;;;;;;0.00;0.00;;;22.30;48.80;;;;;;5054620;28;20204;-46
2024/04/04 02:50:02;;;;;;;0.10;0.10;;;22.30;48.80;;;;;;5031555;28;20285;-48
2024/04/04 02:52:32;;;;;;;0.08;0.08;;;22.30;48.80;;;;;;5032120;28;20200;-46
2024/04/04 02:55:05;;;;;;;0.00;0.00;;;22.30;48.80;;;;;;5047378;28;20199;-46
2024/04/04 02:57:35;;;;;;;0.10;0.10;;;22.30;48.80;;;;;;5052283;28;20593;-48
2024/04/04 03:00:08;;;;;;;0.10;0.10;;;22.30;48.80;;;;;;5052233;28;20195;-46
2024/04/04 03:02:37;;;;;;;0.00;0.00;;;22.30;48.80;;;;;;5052263;28;20203;-46
2024/04/04 03:05:09;;;;;;;0.00;0.00;;;22.40;48.80;;;;;;5051854;28;20197;-46
2024/04/04 03:07:38;;;;;;;0.10;0.10;;;22.40;48.80;;;;;;5051918;28;20829;-46
2024/04/04 03:10:11;;;;;;;0.00;0.00;;;22.40;48.80;;;;;;5052008;28;20234;-46
2024/04/04 03:12:40;;;;;;;0.10;0.10;;;22.40;48.80;;;;;;5052125;28;20196;-46
2024/04/04 03:15:11;;;;;;;0.08;0.08;;;22.40;48.80;;;;;;5052212;28;20195;-47
2024/04/04 03:17:40;;;;;;;0.00;0.00;;;22.40;48.80;;;;;;5051241;28;20216;-46
2024/04/04 03:20:11;;;;;;;0.00;0.00;;;22.40;48.80;;;;;;5052513;28;20704;-46
2024/04/04 03:22:41;;;;;;;0.08;0.08;;;22.40;48.90;;;;;;5052267;28;20196;-46
2024/04/04 03:25:13;;;;;;;0.10;0.10;;;22.40;48.80;;;;;;5052071;28;20210;-48
2024/04/04 03:27:42;;;;;;;0.03;0.03;;;22.40;48.80;;;;;;5052040;28;20234;-46
2024/04/04 03:30:13;;;;;;;0.03;0.03;;;22.40;48.80;;;;;;5051854;28;20235;-46
2024/04/04 03:32:43;;;;;;;0.00;0.00;;;22.40;48.80;;;;;;5051783;28;20203;-46
2024/04/04 03:35:13;;;;;;;0.00;0.00;;;22.40;48.70;;;;;;5055277;28;20274;-46
2024/04/04 03:37:42;;;;;;;0.00;0.00;;;22.50;48.70;;;;;;5071671;28;20222;-46
2024/04/04 03:40:15;;;;;;;0.10;0.10;;;22.50;49.30;;;;;;5071174;28;20290;-46
2024/04/04 03:42:46;;;;;;;0.10;0.10;;;22.50;48.70;;;;;;5070848;28;20655;-46
2024/04/04 03:45:15;;;;;;;0.10;0.10;;;22.50;48.70;;;;;;5081645;22;20228;-44
2024/04/04 03:47:45;;;;;;;0.10;0.10;;;22.50;48.70;;;;;;5071313;28;20214;-45
2024/04/04 03:50:16;;;;;;;0.08;0.08;;;22.50;48.60;;;;;;5070940;28;20219;-45
2024/04/04 03:52:45;;;;;;;0.10;0.10;;;22.50;48.60;;;;;;5071516;28;20203;-45
2024/04/04 03:55:18;;;;;;;0.00;0.00;;;22.50;48.60;;;;;;5070923;28;20199;-46
2024/04/04 03:57:47;;;;;;;0.10;0.10;;;22.50;48.50;;;;;;5071425;28;20211;-47
2024/04/04 04:00:18;;;;;;;0.08;0.08;;;22.50;48.50;;;;;;5071454;28;20194;-46
2024/04/04 04:02:48;;;;;;;0.00;0.00;;;22.60;48.60;;;;;;5079087;28;20362;-46
2024/04/04 04:05:19;;;;;;;0.00;0.00;;;22.60;48.60;;;;;;5091248;28;20567;-47
2024/04/04 04:07:48;;;;;;;0.00;0.00;;;22.60;48.60;;;;;;5091418;28;20221;-47
2024/04/04 04:10:21;;;;;;;0.00;0.00;;;22.60;48.60;;;;;;5090872;28;20226;-46
2024/04/04 04:12:50;;;;;;;0.10;0.10;;;22.60;48.60;;;;;;5090823;28;20198;-47
2024/04/04 04:15:20;;;;;;;0.00;0.00;;;22.60;48.50;;;;;;5091558;28;20199;-45
2024/04/04 04:17:49;;;;;;;0.00;0.00;;;22.60;48.40;;;;;;5091509;28;20210;-46
2024/04/04 04:23:07;;;;;;;0.00;0.00;;;22.60;48.40;;;;;;5091602;28;20294;-47
2024/04/04 04:25:40;;;;;;;0.00;0.00;;;22.60;48.40;;;;;;5084348;28;20193;-46
2024/04/04 04:28:09;;;;;;;0.10;0.10;;;22.60;48.40;;;;;;5070249;28;20244;-47
2024/04/04 04:30:40;;;;;;;0.10;0.10;;;22.60;48.40;;;;;;5073100;28;20693;-46
2024/04/04 04:33:09;;;;;;;0.10;0.10;;;22.60;48.40;;;;;;5085750;28;20773;-46
2024/04/04 04:35:39;;;;;;;0.10;0.10;;;22.60;48.40;;;;;;5095155;28;20244;-48
2024/04/04 04:38:08;;;;;;;0.00;0.00;;;22.60;48.40;;;;;;5094957;28;20685;-47
2024/04/04 04:40:44;;;;;;;0.00;0.00;;;22.60;48.30;;;;;;5067046;28;20191;-48
2024/04/04 04:43:18;;;;;;;0.00;0.00;;;22.60;48.40;;;;;;5069271;28;20190;-48
2024/04/04 04:45:49;;;;;;;0.00;0.00;;;22.60;48.30;;;;;;5070900;28;20612;-47
2024/04/04 04:48:18;;;;;;;0.00;0.00;;;22.60;48.30;;;;;;5070991;28;20690;-47
2024/04/04 04:50:49;;;;;;;0.00;0.00;;;22.60;48.30;;;;;;5070372;28;20230;-46
2024/04/04 04:53:18;;;;;;;0.10;0.10;;;22.60;48.30;;;;;;5071416;28;20256;-46
2024/04/04 04:55:53;;;;;;;0.10;0.10;;;22.60;48.20;;;;;;5083537;28;20599;-46
2024/04/04 04:58:22;;;;;;;0.00;0.00;;;22.60;48.20;;;;;;5070798;28;20218;-46
2024/04/04 05:00:53;;;;;;;0.00;0.00;;;22.70;48.20;;;;;;5070395;28;20202;-49
2024/04/04 05:03:23;;;;;;;0.10;0.10;;;22.60;48.20;;;;;;5083020;28;20198;-50
2024/04/04 05:05:54;;;;;;;0.10;0.10;;;22.60;48.10;;;;;;5090491;28;20229;-48
2024/04/04 05:08:23;;;;;;;0.00;0.00;;;22.60;48.10;;;;;;5089442;28;20213;-47
2024/04/04 05:10:56;;;;;;;0.10;0.10;;;22.60;48.10;;;;;;5072351;28;20237;-46
2024/04/04 05:13:26;;;;;;;0.00;0.00;;;22.60;48.10;;;;;;5070520;28;20207;-50
2024/04/04 05:15:58;;;;;;;0.00;0.00;;;22.60;48.10;;;;;;5070415;28;20217;-48
2024/04/04 05:18:27;;;;;;;0.10;0.10;;;22.60;48.10;;;;;;5069914;28;20210;-46
2024/04/04 05:21:02;;;;;;;0.00;0.00;;;22.60;48.20;;;;;;5070008;28;20543;-46
2024/04/04 05:23:31;;;;;;;0.03;0.03;;;22.60;48.20;;;;;;5050968;28;20241;-46
2024/04/04 05:26:03;;;;;;;0.00;0.00;;;22.60;48.10;;;;;;5051795;28;20615;-47
2024/04/04 05:28:34;;;;;;;0.00;0.00;;;22.60;48.10;;;;;;5049877;28;20277;-50
2024/04/04 05:31:05;;;;;;;0.03;0.03;;;22.60;48.10;;;;;;5049097;28;20322;-50
2024/04/04 05:33:34;;;;;;;0.08;0.08;;;22.60;48.10;;;;;;5077733;28;20676;-47
2024/04/04 05:36:05;;;;;;;0.10;0.10;;;22.60;48.20;;;;;;5072622;28;20285;-46
2024/04/04 05:38:34;;;;;;;0.00;0.00;;;22.50;48.00;;;;;;5070031;28;20222;-50
2024/04/04 05:41:10;;;;;;;0.00;0.00;;;22.60;48.00;;;;;;5068081;28;20290;-46
2024/04/04 05:43:40;;;;;;;0.00;0.00;;;22.50;48.10;;;;;;5070468;28;20190;-51
2024/04/04 05:46:10;;;;;;;0.10;0.10;;;22.50;47.90;;;;;;5070726;28;20370;-50
2024/04/04 05:48:39;;;;;;;0.00;0.00;;;22.50;47.90;;;;;;5070122;28;20219;-51
2024/04/04 05:51:10;;;;;;;0.00;0.00;;;22.50;48.00;;;;;;5070321;28;20230;-47
2024/04/04 05:53:39;;;;;;;0.00;0.00;;;22.50;48.00;;;;;;5069718;28;20202;-47
2024/04/04 05:56:12;;;;;;;0.00;0.00;;;22.50;48.00;;;;;;5069962;28;20206;-50
2024/04/04 05:58:41;;;;;;;0.10;0.10;;;22.50;48.00;;;;;;5068707;28;20218;-49
2024/04/04 06:01:12;;;;;;;0.08;0.08;;;22.50;48.00;;;;;;5059366;28;20199;-47
2024/04/04 06:03:43;;;;;;;0.00;0.00;;;22.50;48.10;;;;;;5079328;28;20210;-45
2024/04/04 06:06:14;;;;;;;0.05;0.05;;;22.50;48.10;;;;;;5089493;28;20198;-48
2024/04/04 06:08:43;;;;;;;0.10;0.10;;;22.50;48.10;;;;;;5089064;28;20264;-46
2024/04/04 06:11:16;;;;;;;0.00;0.00;;;22.40;48.10;;;;;;5088385;28;20318;-46
2024/04/04 06:13:45;;;;;;;0.00;0.00;;;22.40;48.10;;;;;;5073918;28;20664;-46
2024/04/04 06:16:15;;;;;;;0.03;0.03;;;22.40;48.10;;;;;;5069209;28;20660;-52
2024/04/04 06:18:45;;;;;;;0.00;0.00;;;22.40;48.10;;;;;;5069098;28;20701;-49
2024/04/04 06:21:15;;;;;;;0.05;0.05;;;22.40;48.10;;;;;;5069357;28;20202;-47
2024/04/04 06:23:44;;;;;;;0.00;0.00;;;22.40;48.10;;;;;;5072738;28;20240;-46
2024/04/04 06:26:17;;;;;;;0.00;0.00;;;22.40;48.10;;;;;;5072579;28;20191;-46
2024/04/04 06:28:47;;;;;;;0.10;0.10;;;22.40;48.10;;;;;;5072127;28;20221;-47
2024/04/04 06:31:18;;;;;;;0.00;0.00;;;22.40;48.10;;;;;;5072001;28;20755;-46
2024/04/04 06:33:47;;;;;;;0.00;0.00;;;22.40;48.10;;;;;;5088593;28;20198;-46
2024/04/04 06:36:18;;;;;;;0.00;0.00;;;22.40;48.10;;;;;;5072414;28;20249;-46
2024/04/04 06:38:47;;;;;;;0.00;0.00;;;22.40;48.10;;;;;;5072591;28;20698;-48
2024/04/04 06:41:19;;;;;;;0.03;0.03;;;22.40;48.20;;;;;;5072507;28;20198;-46
2024/04/04 06:43:50;;;;;;;0.10;0.10;;;22.30;48.20;;;;;;5072484;28;20202;-45
2024/04/04 06:46:20;;;;;;;0.00;0.00;;;22.30;48.20;;;;;;5072085;28;20195;-46
2024/04/04 06:48:50;;;;;;;0.00;0.00;;;22.30;48.30;;;;;;5072491;28;20214;-46
2024/04/04 06:51:21;;;;;;;0.00;0.00;;;22.30;48.30;;;;;;5071547;28;20250;-46
2024/04/04 06:53:50;;;;;;;0.00;0.00;;;22.30;48.30;;;;;;5071274;28;20194;-45
2024/04/04 06:56:22;;;;;;;0.00;0.00;;;22.30;48.40;;;;;;5071730;28;20195;-45
2024/04/04 06:58:52;;;;;;;0.00;0.00;;;22.20;48.40;;;;;;5072000;28;20222;-47
2024/04/04 07:01:25;;;;;;;0.03;0.03;;;22.20;48.40;;;;;;5072230;28;20190;-50
2024/04/04 07:03:55;;;;;;;0.00;0.00;;;22.20;49.00;;;;;;5088730;28;20536;-45
2024/04/04 07:06:26;;;;;;;0.00;0.00;;;22.20;48.40;;;;;;5091961;28;20194;-45
2024/04/04 07:08:55;;;;;;;0.00;0.00;;;22.20;48.50;;;;;;5092258;28;20213;-46
2024/04/04 07:11:28;;;;;;;0.00;0.00;;;22.20;48.50;;;;;;5092031;28;20408;-45
2024/04/04 07:13:57;;;;;;;0.03;0.03;;;22.20;48.50;;;;;;5091564;28;20198;-45
2024/04/04 07:16:27;;;;;;;0.10;0.10;;;22.20;48.50;;;;;;5091924;28;20211;-46
2024/04/04 07:18:57;;;;;;;0.00;0.00;;;22.10;48.50;;;;;;5092133;28;20221;-47
2024/04/04 07:21:28;;;;;;;0.03;0.03;;;22.10;48.50;;;;;;5092034;28;20201;-49
2024/04/04 07:23:57;;;;;;;0.00;0.00;;;22.10;48.50;;;;;;5092293;28;20198;-46
2024/04/04 07:26:30;;;;;;;0.05;0.05;;;22.10;48.50;;;;;;5091925;28;20202;-47
2024/04/04 07:28:59;;;;;;;0.10;0.10;;;22.10;48.60;;;;;;5092119;28;20218;-49
2024/04/04 07:31:30;;;;;;;0.00;0.00;;;22.10;48.60;;;;;;5087723;28;20279;-46
2024/04/04 07:33:59;;;;;;;0.00;0.00;;;22.10;48.60;;;;;;5088846;28;20544;-48
2024/04/04 07:36:29;;;;;;;0.00;0.00;;;22.00;48.50;;;;;;5091632;28;20674;-46
2024/04/04 07:38:58;;;;;;;0.00;0.00;;;22.00;48.60;;;;;;5091781;28;20218;-46
2024/04/04 07:41:31;;;;;;;0.05;0.05;;;22.00;48.60;;;;;;5090984;28;20190;-46
2024/04/04 07:44:01;;;;;;;0.00;0.00;;;22.00;48.70;;;;;;5091351;28;20259;-46
2024/04/04 07:46:32;;;;;;;0.00;0.00;;;22.00;48.70;;;;;;5091964;28;20198;-48
2024/04/04 07:49:01;;;;;;;0.00;0.00;;;22.00;48.70;;;;;;5091803;28;20283;-48
2024/04/04 07:51:32;;;;;;;0.05;0.05;;;22.00;48.70;;;;;;5085025;28;20210;-50
2024/04/04 07:54:01;;;;;;;0.00;0.00;;;22.00;48.80;;;;;;5071477;28;20700;-48
2024/04/04 07:56:33;;;;;;;0.00;0.00;;;21.90;48.80;;;;;;5071403;28;20205;-47
2024/04/04 07:59:02;;;;;;;0.00;0.00;;;21.90;49.00;;;;;;5071182;28;20690;-47
2024/04/04 08:01:34;;;;;;;0.00;0.00;;;21.90;49.30;;;;;;5071585;28;20673;-48
2024/04/04 08:04:03;;;;;;;0.05;0.05;;;22.00;49.50;;;;;;5089085;28;20243;-47
2024/04/04 08:06:34;;;;;;;0.00;0.00;;;21.90;49.70;;;;;;5091191;28;20194;-46
2024/04/04 08:09:03;;;;;;;0.05;0.05;;;21.90;49.90;;;;;;5091049;28;20209;-46
2024/04/04 08:11:35;;;;;;;0.00;0.00;;;22.00;50.10;;;;;;5090776;28;20340;-49
2024/04/04 08:14:04;;;;;;;0.00;0.00;;;22.00;50.20;;;;;;5090526;28;20575;-47
2024/04/04 08:16:36;;;;;;;0.00;0.00;;;21.90;50.20;;;;;;5091491;28;20684;-47
2024/04/04 08:19:05;;;;;;;0.00;0.00;;;22.00;50.20;;;;;;5090687;28;20214;-47
2024/04/04 08:21:36;;;;;;;0.00;0.00;;;21.90;50.20;;;;;;5091645;28;20222;-47
2024/04/04 08:24:06;;;;;;;0.00;0.00;;;21.90;50.10;;;;;;5091599;28;20194;-47
2024/04/04 08:26:38;;;;;;;0.10;0.10;;;21.90;50.10;;;;;;5091036;28;20190;-46
2024/04/04 08:29:08;;;;;;;0.00;0.00;;;21.90;50.10;;;;;;5090591;28;20222;-48
2024/04/04 08:31:39;;;;;;;0.00;0.00;;;21.90;50.10;;;;;;5091330;28;20704;-47
2024/04/04 08:34:08;;;;;;;0.00;0.00;;;21.90;50.20;;;;;;5091311;28;20650;-47
2024/04/04 08:36:39;;;;;;;0.10;0.10;;;21.80;50.10;;;;;;5078757;28;20583;-48
2024/04/04 08:39:08;;;;;;;0.10;0.10;;;21.80;50.10;;;;;;5070615;28;20617;-46
2024/04/04 08:41:42;;;;;;;0.08;0.08;;;21.90;50.10;;;;;;5078570;28;20702;-48
2024/04/04 08:44:12;;;;;;;0.00;0.00;;;21.80;50.00;;;;;;5071182;28;20198;-47
2024/04/04 08:46:44;;;;;;;0.10;0.10;;;21.80;50.00;;;;;;5068848;28;20195;-45
2024/04/04 08:49:14;;;;;;;0.10;0.10;;;21.80;50.00;;;;;;5070298;28;20594;-46
2024/04/04 08:51:45;;;;;;;0.00;0.00;;;21.80;50.00;;;;;;5071058;28;20219;-49
2024/04/04 08:54:14;;;;;;;0.00;0.00;;;21.80;49.90;;;;;;5070400;28;20202;-44
2024/04/04 08:56:49;;;;;;;0.00;0.00;;;21.70;49.90;;;;;;5069816;28;20573;-46
2024/04/04 08:59:19;;;;;;;0.10;0.10;;;21.70;49.90;;;;;;5064982;28;20195;-45
2024/04/04 09:01:51;;;;;;;0.00;0.00;;;21.70;49.90;;;;;;5063719;28;20210;-45
2024/04/04 09:04:25;;;;;;;0.00;0.00;;;21.70;49.80;;;;;;5066420;28;20191;-47
2024/04/04 09:06:56;;;;;;;0.00;0.00;;;21.70;49.80;;;;;;5066254;28;20277;-45
2024/04/04 09:09:25;;;;;;;0.10;0.10;;;21.70;49.80;;;;;;5066622;28;20256;-45
2024/04/04 09:11:58;;;;;;;0.00;0.00;;;21.70;49.80;;;;;;5066710;28;20600;-45
2024/04/04 09:14:27;;;;;;;0.00;0.00;;;21.60;49.80;;;;;;5067296;28;20198;-46
2024/04/04 09:17:03;;;;;;;0.00;0.00;;;21.60;49.80;;;;;;5069206;28;20632;-46
2024/04/04 09:19:34;;;;;;;0.00;0.00;;;21.60;49.80;;;;;;5070687;28;20194;-45
2024/04/04 09:22:06;;;;;;;0.03;0.03;;;21.60;49.80;;;;;;5070419;28;20264;-45
2024/04/04 09:24:37;;;;;;;0.10;0.10;;;21.60;49.80;;;;;;5069911;28;20277;-45
2024/04/04 09:27:09;;;;;;;0.10;0.10;;;21.50;49.80;;;;;;5069913;28;20219;-46
2024/04/04 09:29:40;;;;;;;0.10;0.10;;;21.50;49.80;;;;;;5070750;28;20198;-46
2024/04/04 09:32:11;;;;;;;0.00;0.00;;;21.50;49.80;;;;;;5072517;28;20226;-46
2024/04/04 09:34:42;;;;;;;0.00;0.00;;;21.50;49.80;;;;;;5090737;28;20744;-48
2024/04/04 09:37:13;;;;;;;0.00;0.00;;;21.50;49.70;;;;;;5090448;28;20257;-45
2024/04/04 09:39:43;;;;;;;0.00;0.00;;;21.50;49.80;;;;;;5078806;28;20252;-46
2024/04/04 09:42:18;;;;;;;0.10;0.10;;;21.50;49.80;;;;;;5070162;28;20742;-46
2024/04/04 09:44:47;;;;;;;0.10;0.10;;;21.40;49.80;;;;;;5070321;28;20304;-46
2024/04/04 09:47:18;;;;;;;0.08;0.08;;;21.40;49.70;;;;;;5070363;28;20218;-47
2024/04/04 09:49:49;;;;;;;0.10;0.10;;;21.40;49.70;;;;;;5085044;28;20206;-48
2024/04/04 09:52:21;;;;;;;0.00;0.00;;;21.40;49.80;;;;;;5090708;28;20234;-46
2024/04/04 09:54:50;;;;;;;0.00;0.00;;;21.30;49.70;;;;;;5070201;28;20218;-47
2024/04/04 09:57:23;;;;;;;0.00;0.00;;;21.40;49.80;;;;;;5069450;28;20587;-47
2024/04/04 10:00:14;;;;;;;0.00;0.00;;;21.40;49.80;;;;;;5069877;28;20214;-45
2024/04/04 10:02:51;;;;;;;0.10;0.10;;;21.30;49.70;;;;;;5076465;28;20277;-46
2024/04/04 10:05:21;;;;;;;0.03;0.03;;;21.30;50.30;;;;;;5088894;28;20251;-46
2024/04/04 10:07:52;;;;;;;0.00;0.00;;;21.30;49.70;;;;;;5081533;28;20250;-45
2024/04/04 10:10:27;;;;;;;0.00;0.00;;;21.30;49.70;;;;;;5069546;28;20206;-46
2024/04/04 10:12:59;;;;;;;0.00;0.00;;;21.20;49.70;;;;;;5069090;28;20200;-49
2024/04/04 10:15:30;;;;;;;0.00;0.00;;;21.30;49.80;;;;;;5069544;28;20206;-46
2024/04/04 10:18:10;;;;;;;0.10;0.10;;;21.20;49.70;;;;;;5069506;28;20310;-48
2024/04/04 10:20:41;;;;;;;0.05;0.05;;;21.20;49.70;;;;;;5069704;28;20203;-46
2024/04/04 10:23:16;;;;;;;0.00;0.00;;;21.30;49.70;;;;;;5089467;28;20201;-47
2024/04/04 10:25:46;;;;;;;0.10;0.10;;;21.20;49.70;;;;;;5089018;28;20202;-45
2024/04/04 10:28:20;;;;;;;0.00;0.00;;;21.20;49.70;;;;;;5088738;28;20226;-48
2024/04/04 10:30:49;;;;;;;0.00;0.00;;;21.20;49.60;;;;;;5089423;28;20226;-47
2024/04/04 10:33:20;;;;;;;0.00;0.00;;;21.20;49.60;;;;;;5083431;28;20206;-47
2024/04/04 10:35:59;;;;;;;0.00;0.00;;;21.20;49.60;;;;;;5068400;28;20213;-47
2024/04/04 10:38:29;;;;;;;0.00;0.00;;;21.20;49.60;;;;;;5069330;28;20749;-46
2024/04/04 10:40:58;;;;;;;0.10;0.10;;;21.20;49.60;;;;;;5068587;28;20214;-46
2024/04/04 10:43:31;;;;;;;0.00;0.00;;;21.10;49.60;;;;;;5068742;28;20210;-48
2024/04/04 10:46:00;;;;;;;0.00;0.00;;;21.10;49.60;;;;;;5068901;28;20205;-46
2024/04/04 10:48:30;;;;;;;0.00;0.00;;;21.10;49.50;;;;;;5068741;28;20223;-45
2024/04/04 10:51:00;;;;;;;0.00;0.00;;;21.10;49.60;;;;;;5068093;28;20222;-46
2024/04/04 10:53:31;;;;;;;0.00;0.00;;;21.10;49.60;;;;;;5068113;28;20183;-46
2024/04/04 10:56:00;;;;;;;0.10;0.10;;;21.10;49.60;;;;;;5068223;28;20206;-46
2024/04/04 10:58:35;;;;;;;0.10;0.10;;;21.10;49.60;;;;;;5068364;28;20305;-47
2024/04/04 11:01:05;;;;;;;0.10;0.10;;;21.10;49.60;;;;;;5068324;28;20209;-46
2024/04/04 11:03:36;;;;;;;0.10;0.10;;;21.10;49.60;;;;;;5082596;28;20202;-46
2024/04/04 11:06:06;;;;;;;0.10;0.10;;;21.00;49.60;;;;;;5089245;28;20684;-46
2024/04/04 11:08:36;;;;;;;0.10;0.10;;;21.00;49.60;;;;;;5077973;28;20560;-47
2024/04/04 11:11:05;;;;;;;0.00;0.00;;;21.00;49.60;;;;;;5068070;28;20256;-46
2024/04/04 11:13:39;;;;;;;0.00;0.00;;;21.00;49.50;;;;;;5068620;28;20222;-47
2024/04/04 11:16:09;;;;;;;0.00;0.00;;;21.00;49.50;;;;;;5069083;28;20198;-49
2024/04/04 11:18:42;;;;;;;0.00;0.00;;;21.00;49.50;;;;;;5067540;28;20231;-45
2024/04/04 11:21:11;;;;;;;0.00;0.00;;;21.00;49.50;;;;;;5068078;28;20206;-47
2024/04/04 11:23:42;;;;;;;0.00;0.00;;;20.90;49.50;;;;;;5068063;28;20234;-46
2024/04/04 11:26:11;;;;;;;0.00;0.00;;;21.00;49.50;;;;;;5067266;28;20539;-46
2024/04/04 11:28:43;;;;;;;0.10;0.10;;;20.90;49.50;;;;;;5068779;28;20225;-45
2024/04/04 11:31:12;;;;;;;0.05;0.05;;;20.90;49.50;;;;;;5067157;28;20222;-45
2024/04/04 11:33:43;;;;;;;0.08;0.08;;;20.90;49.50;;;;;;5083640;28;20210;-45
2024/04/04 11:36:12;;;;;;;0.00;0.00;;;20.90;49.50;;;;;;5089027;28;20198;-46
2024/04/04 11:38:43;;;;;;;0.00;0.00;;;20.90;49.50;;;;;;5082333;28;20225;-47
2024/04/04 11:41:12;;;;;;;0.00;0.00;;;20.90;49.50;;;;;;5070699;28;20198;-46
2024/04/04 11:43:47;;;;;;;0.00;0.00;;;20.90;49.60;;;;;;5069665;28;20201;-60
2024/04/04 11:46:17;;;;;;;0.03;0.03;;;20.80;49.50;;;;;;5060279;28;20210;-44
2024/04/04 11:48:48;;;;;;;0.10;0.10;;;20.80;49.50;;;;;;5051579;28;20211;-45
2024/04/04 11:51:17;;;;;;;0.00;0.00;;;20.80;49.50;;;;;;5050904;28;20766;-45
2024/04/04 11:53:48;;;;;;;0.00;0.00;;;20.80;49.50;;;;;;5051218;28;20651;-45
2024/04/04 11:56:17;;;;;;;0.08;0.08;;;20.80;49.50;;;;;;5051613;28;20202;-45
2024/04/04 11:58:50;;;;;;;0.00;0.00;;;20.80;49.50;;;;;;5050566;28;20216;-46
2024/04/04 12:01:19;;;;;;;0.10;0.10;;;20.80;49.40;;;;;;5050896;28;20260;-45
2024/04/04 12:03:51;;;;;;;0.00;0.00;;;20.80;49.40;;;;;;5069425;28;20251;-45
2024/04/04 12:06:20;;;;;;;0.00;0.00;;;20.80;49.40;;;;;;5070667;28;20206;-46
2024/04/04 12:08:51;;;;;;;0.10;0.10;;;20.70;49.40;;;;;;5051612;28;20270;-47
2024/04/04 12:11:20;;;;;;;0.00;0.00;;;20.70;49.40;;;;;;5051020;28;20223;-46
2024/04/04 12:13:53;;;;;;;0.00;0.00;;;20.70;49.40;;;;;;5050304;28;20195;-47
2024/04/04 12:16:23;;;;;;;0.10;0.10;;;20.70;49.50;;;;;;5051273;28;20670;-46
2024/04/04 12:21:40;;;;;;;0.00;0.00;;;20.70;49.50;;;;;;5051131;28;20280;-46
2024/04/04 12:24:12;;;;;;;0.10;0.10;;;20.70;49.50;;;;;;5051142;28;20204;-46
2024/04/04 12:26:43;;;;;;;0.00;0.00;;;20.60;49.40;;;;;;5055631;28;20669;-46
2024/04/04 12:29:16;;;;;;;0.10;0.10;;;20.60;49.40;;;;;;5059918;28;20183;-45
2024/04/04 12:31:49;;;;;;;0.00;0.00;;;20.60;49.40;;;;;;5059716;28;20284;-46
2024/04/04 12:34:18;;;;;;;0.10;0.10;;;20.60;49.40;;;;;;5062201;28;20198;-45
2024/04/04 12:36:49;;;;;;;0.00;0.00;;;20.60;49.40;;;;;;5059678;28;20241;-45
2024/04/04 12:39:19;;;;;;;0.00;0.00;;;20.60;49.40;;;;;;5061152;28;20221;-46
2024/04/04 12:41:49;;;;;;;0.00;0.00;;;20.60;49.40;;;;;;5061851;28;20194;-46
2024/04/04 12:44:21;;;;;;;0.00;0.00;;;20.60;49.40;;;;;;5063647;28;20195;-45
2024/04/04 12:46:52;;;;;;;0.00;0.00;;;20.60;49.40;;;;;;5059820;28;20187;-45
2024/04/04 12:49:21;;;;;;;0.05;0.05;;;20.60;49.40;;;;;;5060041;28;20194;-46
2024/04/04 12:51:52;;;;;;;0.00;0.00;;;20.50;49.40;;;;;;5064743;28;20219;-46
2024/04/04 12:54:21;;;;;;;0.10;0.10;;;20.50;49.40;;;;;;5065051;28;20187;-46
2024/04/04 12:56:51;;;;;;;0.10;0.10;;;20.50;50.00;;;;;;5063258;28;20183;-46
2024/04/04 12:59:22;;;;;;;0.00;0.00;;;20.50;49.40;;;;;;5064242;28;20197;-45
2024/04/04 13:01:53;;;;;;;0.10;0.10;;;20.50;49.40;;;;;;5063424;28;20562;-45
2024/04/04 13:04:23;;;;;;;0.00;0.00;;;20.50;49.40;;;;;;5073368;28;20267;-44
2024/04/04 13:06:54;;;;;;;0.10;0.10;;;20.50;49.50;;;;;;5074431;28;20252;-45
2024/04/04 13:09:23;;;;;;;0.00;0.00;;;20.50;49.50;;;;;;5074489;28;20190;-46
2024/04/04 13:11:53;;;;;;;0.03;0.03;;;20.50;49.50;;;;;;5074314;28;20215;-45